Time;durP1;ratioP1;P1;durP2;ratioP2;P2;SDS_P1;SDS_P2;PMS_P1;PMS_P2;Temp;Humidity;BMP_temperature;BMP_pressure;BME280_temperature;BME280_humidity;BME280_pressure;Samples;Min_cycle;Max_cycle;Signal;HPM_P1;HPM_P2
2023/11/03 00:01:53;;;;;;;0.63;0.10;;;8.50;99.90;;;;;;4965438;28;20031;-85
2023/11/03 00:04:19;;;;;;;3.08;0.10;;;8.50;99.90;;;;;;4962915;28;20372;-83
2023/11/03 00:06:44;;;;;;;1.55;0.20;;;8.50;99.90;;;;;;4961516;28;20086;-83
2023/11/03 00:09:14;;;;;;;0.75;0.10;;;8.50;99.90;;;;;;4964498;28;20034;-83
2023/11/03 00:11:41;;;;;;;1.00;0.13;;;8.50;99.90;;;;;;4957428;28;20038;-84
2023/11/03 00:14:07;;;;;;;1.30;0.03;;;8.50;99.90;;;;;;4963183;28;20058;-84
2023/11/03 00:16:33;;;;;;;0.40;0.10;;;8.60;99.90;;;;;;4947852;28;20030;-83
2023/11/03 00:19:00;;;;;;;0.60;0.10;;;8.60;99.90;;;;;;4950358;28;20027;-89
2023/11/03 00:21:27;;;;;;;0.80;0.10;;;8.60;99.90;;;;;;4967544;28;20073;-83
2023/11/03 00:23:53;;;;;;;0.68;0.10;;;8.60;99.90;;;;;;4969735;28;20030;-85
2023/11/03 00:26:18;;;;;;;0.70;0.10;;;8.60;99.90;;;;;;4968917;28;20513;-84
2023/11/03 00:28:49;;;;;;;0.93;0.10;;;8.60;99.90;;;;;;4983368;28;20026;-86
2023/11/03 00:31:16;;;;;;;1.80;0.10;;;8.60;99.90;;;;;;4961233;28;20035;-85
2023/11/03 00:33:42;;;;;;;0.47;0.00;;;8.60;99.90;;;;;;4947624;28;20479;-87
2023/11/03 00:36:08;;;;;;;1.00;0.10;;;8.60;99.90;;;;;;4965034;28;20026;-86
2023/11/03 00:38:35;;;;;;;1.48;0.00;;;8.60;99.90;;;;;;4962661;28;20019;-83
2023/11/03 00:41:01;;;;;;;1.23;0.10;;;8.60;99.90;;;;;;4947999;28;20559;-86
2023/11/03 00:43:27;;;;;;;1.95;0.10;;;8.60;99.90;;;;;;4967147;28;20054;-82
2023/11/03 00:45:52;;;;;;;0.95;0.10;;;8.60;99.90;;;;;;4982339;28;20022;-83
2023/11/03 00:48:19;;;;;;;0.77;0.10;;;8.60;99.90;;;;;;4977345;28;20467;-83
2023/11/03 00:50:45;;;;;;;2.70;0.10;;;8.60;99.90;;;;;;4962824;28;20078;-85
2023/11/03 00:53:10;;;;;;;2.38;0.10;;;8.70;99.90;;;;;;4967170;28;20098;-84
2023/11/03 00:55:36;;;;;;;0.50;0.08;;;8.70;99.90;;;;;;4962465;28;20034;-86
2023/11/03 00:58:03;;;;;;;1.65;0.10;;;8.70;99.90;;;;;;4966169;28;20545;-82
2023/11/03 01:00:34;;;;;;;1.52;0.10;;;8.70;99.90;;;;;;4964802;28;20039;-83
2023/11/03 01:03:00;;;;;;;0.98;0.10;;;8.70;99.90;;;;;;4962094;28;20475;-85
2023/11/03 01:05:26;;;;;;;0.93;0.10;;;8.70;99.90;;;;;;4974823;28;20033;-82
2023/11/03 01:07:52;;;;;;;1.17;0.10;;;8.70;99.90;;;;;;4963745;28;20061;-86
2023/11/03 01:10:18;;;;;;;0.40;0.10;;;8.70;99.90;;;;;;4948566;28;20046;-82
2023/11/03 01:12:49;;;;;;;1.10;0.10;;;8.60;99.90;;;;;;4966639;28;20553;-87
2023/11/03 01:15:19;;;;;;;1.98;0.10;;;8.60;99.90;;;;;;4961805;28;20174;-84
2023/11/03 01:17:49;;;;;;;1.40;0.10;;;8.60;99.90;;;;;;4962653;28;20047;-84
2023/11/03 01:20:19;;;;;;;1.63;0.10;;;8.60;99.90;;;;;;4962042;28;20035;-84
2023/11/03 01:22:48;;;;;;;1.20;0.20;;;8.60;99.90;;;;;;4942398;28;20086;-86
2023/11/03 01:25:17;;;;;;;1.27;0.10;;;8.50;99.90;;;;;;4966482;28;20042;-82
2023/11/03 01:27:43;;;;;;;1.65;0.10;;;8.50;99.90;;;;;;4962821;28;20525;-82
2023/11/03 01:30:11;;;;;;;2.58;0.10;;;8.50;99.90;;;;;;4978955;28;20064;-84
2023/11/03 01:32:37;;;;;;;0.77;0.10;;;8.50;99.90;;;;;;4960852;28;20456;-87
2023/11/03 01:35:03;;;;;;;0.85;0.10;;;8.50;99.90;;;;;;4981476;28;20114;-82
2023/11/03 01:37:29;;;;;;;0.88;0.10;;;8.50;99.90;;;;;;4967126;28;20394;-81
2023/11/03 01:39:56;;;;;;;0.25;0.10;;;8.50;99.90;;;;;;4982486;28;20027;-83
2023/11/03 01:42:22;;;;;;;2.63;0.10;;;8.50;99.90;;;;;;4959996;28;20079;-83
2023/11/03 01:44:47;;;;;;;0.90;0.10;;;8.50;99.90;;;;;;4980262;28;20042;-83
2023/11/03 01:47:13;;;;;;;1.88;0.10;;;8.50;99.90;;;;;;4960686;28;20034;-84
2023/11/03 01:49:39;;;;;;;0.50;0.10;;;8.50;99.90;;;;;;4981172;28;20030;-82
2023/11/03 01:52:05;;;;;;;0.47;0.10;;;8.60;99.90;;;;;;4981921;28;20018;-82
2023/11/03 01:54:31;;;;;;;1.10;0.10;;;8.60;99.90;;;;;;4958724;28;20105;-82
2023/11/03 01:56:58;;;;;;;0.50;0.10;;;8.50;99.90;;;;;;4966781;28;20161;-82
2023/11/03 02:00:51;;;;;;;1.23;0.10;;;8.50;99.90;;;;;;5046062;27;20449;-84
2023/11/03 02:03:17;;;;;;;1.08;0.10;;;8.60;99.90;;;;;;5063246;28;20133;-84
2023/11/03 02:05:43;;;;;;;0.40;0.10;;;8.60;99.90;;;;;;5041417;28;20544;-83
2023/11/03 02:08:09;;;;;;;1.70;0.20;;;8.60;99.90;;;;;;5041688;28;20420;-84
2023/11/03 02:10:35;;;;;;;1.48;0.20;;;8.60;99.90;;;;;;5028602;28;20028;-84
2023/11/03 02:13:01;;;;;;;1.75;0.10;;;8.60;99.90;;;;;;5039848;28;20029;-84
2023/11/03 02:15:26;;;;;;;0.60;0.08;;;8.60;99.90;;;;;;5052160;28;20080;-83
2023/11/03 02:17:52;;;;;;;1.85;0.10;;;8.60;99.90;;;;;;5053087;28;20028;-85
2023/11/03 02:20:18;;;;;;;1.50;0.10;;;8.50;99.90;;;;;;5026583;28;20063;-85
2023/11/03 02:22:44;;;;;;;1.90;0.10;;;8.60;99.90;;;;;;5046101;28;20481;-83
2023/11/03 02:25:09;;;;;;;2.30;0.10;;;8.50;99.90;;;;;;5055800;28;20116;-85
2023/11/03 02:27:35;;;;;;;0.90;0.10;;;8.50;99.90;;;;;;5048775;28;20465;-84
2023/11/03 02:30:01;;;;;;;0.38;0.10;;;8.50;99.90;;;;;;5069412;28;20117;-85
2023/11/03 02:32:26;;;;;;;0.63;0.10;;;8.50;99.90;;;;;;5035591;28;20112;-84
2023/11/03 02:34:52;;;;;;;2.33;0.10;;;8.50;99.90;;;;;;5053504;28;20033;-85
2023/11/03 02:37:18;;;;;;;2.88;0.10;;;8.50;99.90;;;;;;5020065;28;20026;-83
2023/11/03 02:39:47;;;;;;;0.98;0.10;;;8.50;99.90;;;;;;5039233;28;20038;-85
2023/11/03 02:42:14;;;;;;;1.23;0.30;;;8.50;99.90;;;;;;5038985;28;20065;-84
2023/11/03 02:44:40;;;;;;;0.77;0.10;;;8.50;99.90;;;;;;5029930;28;20464;-84
2023/11/03 02:47:06;;;;;;;1.35;0.10;;;8.50;99.90;;;;;;5047627;28;20072;-86
2023/11/03 02:49:32;;;;;;;0.25;0.00;;;8.60;99.90;;;;;;5035203;28;20064;-83
2023/11/03 02:51:58;;;;;;;0.70;0.00;;;8.60;99.90;;;;;;5030971;28;20468;-84
2023/11/03 02:54:24;;;;;;;0.45;0.00;;;8.50;99.90;;;;;;5056076;28;20036;-86
2023/11/03 02:56:50;;;;;;;2.60;0.65;;;8.50;99.90;;;;;;5027434;28;20025;-84
2023/11/03 02:59:16;;;;;;;1.17;0.10;;;8.60;99.90;;;;;;5042107;28;20073;-85
2023/11/03 03:01:42;;;;;;;1.70;0.10;;;8.60;99.90;;;;;;5057214;28;20072;-87
2023/11/03 03:04:08;;;;;;;0.43;0.10;;;8.60;99.90;;;;;;5068301;28;20025;-84
2023/11/03 03:06:35;;;;;;;2.15;0.10;;;8.60;99.90;;;;;;5048390;28;20052;-84
2023/11/03 03:09:01;;;;;;;3.20;0.10;;;8.60;99.90;;;;;;5030907;28;20030;-84
2023/11/03 03:11:27;;;;;;;0.85;0.00;;;8.70;99.90;;;;;;5031747;28;20464;-84
2023/11/03 03:13:53;;;;;;;0.85;0.05;;;8.70;99.90;;;;;;5017248;28;20053;-84
2023/11/03 03:16:19;;;;;;;0.40;0.05;;;8.70;99.90;;;;;;5028345;28;20053;-84
2023/11/03 03:18:46;;;;;;;1.88;0.20;;;8.70;99.90;;;;;;5038194;28;20034;-85
2023/11/03 03:21:17;;;;;;;0.95;0.10;;;8.80;99.90;;;;;;5022424;28;20699;-89
2023/11/03 03:23:43;;;;;;;2.28;0.10;;;8.80;99.90;;;;;;5040359;28;20021;-85
2023/11/03 03:26:09;;;;;;;1.77;0.10;;;8.80;99.90;;;;;;5017490;28;20064;-86
2023/11/03 03:28:34;;;;;;;2.20;0.20;;;8.80;99.90;;;;;;5024760;28;20060;-87
2023/11/03 03:31:00;;;;;;;0.95;0.10;;;8.80;99.90;;;;;;5015401;28;20045;-87
2023/11/03 03:33:26;;;;;;;1.83;0.10;;;8.70;99.90;;;;;;5037531;28;20029;-86
2023/11/03 03:35:52;;;;;;;1.67;0.10;;;8.80;99.90;;;;;;5035174;28;20037;-85
2023/11/03 03:38:18;;;;;;;1.38;0.10;;;8.80;99.90;;;;;;5033976;28;20047;-88
2023/11/03 03:40:43;;;;;;;2.58;0.10;;;8.80;99.90;;;;;;5029212;28;20042;-91
2023/11/03 03:43:09;;;;;;;2.17;0.15;;;8.80;99.90;;;;;;5043479;28;20030;-87
2023/11/03 03:45:35;;;;;;;1.63;0.10;;;8.80;99.90;;;;;;5026378;28;20112;-84
2023/11/03 03:48:00;;;;;;;1.55;0.10;;;8.80;99.90;;;;;;5035357;28;20064;-89
2023/11/03 03:50:26;;;;;;;0.60;0.10;;;8.80;99.90;;;;;;5012656;28;20083;-89
2023/11/03 03:52:51;;;;;;;3.33;0.20;;;8.80;99.90;;;;;;5033497;28;20049;-86
2023/11/03 03:55:17;;;;;;;0.50;0.10;;;8.80;99.90;;;;;;5021029;28;20029;-84
2023/11/03 03:57:43;;;;;;;1.42;0.10;;;8.80;99.90;;;;;;5022383;28;20116;-84
2023/11/03 04:00:09;;;;;;;3.03;0.10;;;8.80;99.90;;;;;;5008859;28;20136;-87
2023/11/03 04:02:35;;;;;;;2.08;0.20;;;8.80;99.90;;;;;;5026534;28;20017;-83
2023/11/03 04:05:01;;;;;;;0.77;0.10;;;8.80;99.90;;;;;;5035599;28;20507;-84
2023/11/03 04:07:27;;;;;;;1.20;0.10;;;8.80;99.90;;;;;;5028497;28;20120;-85
2023/11/03 04:09:53;;;;;;;2.25;0.10;;;8.80;99.90;;;;;;5034528;28;20444;-87
2023/11/03 04:12:18;;;;;;;3.35;0.20;;;8.90;99.90;;;;;;5043574;28;20020;-83
2023/11/03 04:14:44;;;;;;;3.08;0.10;;;8.90;99.90;;;;;;5030202;28;20057;-88
2023/11/03 04:17:10;;;;;;;0.95;0.13;;;8.90;99.90;;;;;;5011063;28;20086;-84
2023/11/03 04:19:35;;;;;;;1.20;0.10;;;8.80;99.90;;;;;;5045787;28;20033;-87
2023/11/03 04:22:01;;;;;;;0.57;0.10;;;8.80;99.90;;;;;;5051711;28;20473;-88
2023/11/03 04:24:27;;;;;;;1.10;0.10;;;8.80;99.90;;;;;;5029280;28;20032;-87
2023/11/03 04:26:54;;;;;;;2.40;0.10;;;8.80;99.90;;;;;;5026814;28;20044;-87
2023/11/03 04:29:19;;;;;;;1.65;0.20;;;8.70;99.90;;;;;;5011675;28;20033;-86
2023/11/03 04:31:45;;;;;;;3.72;0.30;;;8.70;99.90;;;;;;5022423;28;20445;-85
2023/11/03 04:34:11;;;;;;;2.38;0.20;;;8.70;99.90;;;;;;5023330;28;20043;-86
2023/11/03 04:36:37;;;;;;;1.95;0.10;;;8.60;99.90;;;;;;5007754;28;20120;-87
2023/11/03 04:39:02;;;;;;;2.83;0.10;;;8.60;99.90;;;;;;5027724;28;20496;-85
2023/11/03 04:41:28;;;;;;;1.90;0.10;;;8.60;99.90;;;;;;5030460;28;20496;-88
2023/11/03 04:43:54;;;;;;;1.83;0.10;;;8.60;99.90;;;;;;5040040;28;20044;-86
2023/11/03 04:46:20;;;;;;;1.92;0.20;;;8.60;99.90;;;;;;5034157;28;20030;-86
2023/11/03 04:48:45;;;;;;;1.65;0.20;;;8.50;99.90;;;;;;5031624;28;20030;-87
2023/11/03 04:51:12;;;;;;;2.90;0.20;;;8.50;99.90;;;;;;5030430;28;20025;-85
2023/11/03 04:53:37;;;;;;;2.00;0.20;;;8.50;99.90;;;;;;5022435;28;20037;-84
2023/11/03 04:56:03;;;;;;;3.58;0.25;;;8.40;99.90;;;;;;5031017;28;20109;-88
2023/11/03 04:58:29;;;;;;;2.58;0.10;;;8.40;99.90;;;;;;5014160;28;20420;-84
2023/11/03 05:00:55;;;;;;;1.10;0.20;;;8.40;99.90;;;;;;5029297;28;20041;-85
2023/11/03 05:03:21;;;;;;;1.40;0.20;;;8.40;99.90;;;;;;5022263;28;20040;-85
2023/11/03 05:05:47;;;;;;;6.10;0.40;;;8.40;99.90;;;;;;5025219;28;20058;-87
2023/11/03 05:08:13;;;;;;;1.52;0.20;;;8.40;99.90;;;;;;5033407;28;20030;-85
2023/11/03 05:10:39;;;;;;;2.72;0.20;;;8.40;99.90;;;;;;5025800;28;20038;-86
2023/11/03 05:13:06;;;;;;;3.08;0.20;;;8.30;99.90;;;;;;5020979;28;20021;-87
2023/11/03 05:15:32;;;;;;;2.80;0.35;;;8.40;99.90;;;;;;5005988;28;20033;-84
2023/11/03 05:17:58;;;;;;;3.72;0.30;;;8.40;99.90;;;;;;5030830;28;20033;-87
2023/11/03 05:20:25;;;;;;;2.45;0.30;;;8.40;99.90;;;;;;5021861;28;20166;-87
2023/11/03 05:22:51;;;;;;;3.25;0.50;;;8.40;99.90;;;;;;5030285;28;20061;-84
2023/11/03 05:25:16;;;;;;;3.28;0.52;;;8.30;99.90;;;;;;5031894;28;20114;-88
2023/11/03 05:27:42;;;;;;;3.90;0.20;;;8.30;99.90;;;;;;5005676;28;20478;-85
2023/11/03 05:30:08;;;;;;;4.90;0.52;;;8.30;99.90;;;;;;5053787;28;20462;-88
2023/11/03 05:32:35;;;;;;;3.40;0.30;;;8.40;99.90;;;;;;5037263;28;22850;-90
2023/11/03 05:35:00;;;;;;;1.67;0.20;;;8.40;99.90;;;;;;5022354;28;20467;-88
2023/11/03 05:37:27;;;;;;;5.00;0.45;;;8.40;99.90;;;;;;5029697;28;20124;-91
2023/11/03 05:39:52;;;;;;;3.10;0.30;;;8.40;99.90;;;;;;5029950;28;20033;-87
2023/11/03 05:42:18;;;;;;;2.35;0.20;;;8.40;99.90;;;;;;5042914;28;20053;-85
2023/11/03 05:44:44;;;;;;;2.20;0.15;;;8.30;99.90;;;;;;5007551;28;20448;-90
2023/11/03 05:47:11;;;;;;;1.33;0.10;;;8.40;99.90;;;;;;5028839;28;20090;-91
2023/11/03 05:49:36;;;;;;;2.08;0.17;;;8.30;99.90;;;;;;5036149;28;20039;-88
2023/11/03 05:52:02;;;;;;;5.68;0.40;;;8.40;99.90;;;;;;5045289;28;20113;-89
2023/11/03 05:54:28;;;;;;;4.55;0.30;;;8.30;99.90;;;;;;5036337;28;20055;-89
2023/11/03 05:56:54;;;;;;;3.63;0.40;;;8.40;99.90;;;;;;5046074;28;20029;-90
2023/11/03 05:59:19;;;;;;;3.80;0.47;;;8.40;99.90;;;;;;5004888;28;20081;-86
2023/11/03 06:01:45;;;;;;;4.05;0.30;;;8.40;99.90;;;;;;5043719;28;20542;-84
2023/11/03 06:04:11;;;;;;;1.98;0.30;;;8.40;99.90;;;;;;5031268;28;20026;-88
2023/11/03 06:06:36;;;;;;;5.22;0.30;;;8.40;99.90;;;;;;5016811;28;20037;-87
2023/11/03 06:09:02;;;;;;;4.07;0.30;;;8.40;99.90;;;;;;5026717;28;20068;-88
2023/11/03 06:11:28;;;;;;;2.10;0.30;;;8.40;99.90;;;;;;5031785;28;20041;-86
2023/11/03 06:13:54;;;;;;;2.63;0.30;;;8.40;99.90;;;;;;5042423;28;20354;-87
2023/11/03 06:16:20;;;;;;;2.28;0.20;;;8.40;99.90;;;;;;5028731;28;20030;-88
2023/11/03 06:18:47;;;;;;;4.03;0.30;;;8.40;99.90;;;;;;5022897;28;20018;-85
2023/11/03 06:21:13;;;;;;;3.45;0.30;;;8.40;99.90;;;;;;5054677;28;20540;-85
2023/11/03 06:23:39;;;;;;;4.85;0.30;;;8.30;99.90;;;;;;5008705;28;20056;-83
2023/11/03 06:26:06;;;;;;;3.83;0.20;;;8.40;99.90;;;;;;5028244;28;20025;-86
2023/11/03 06:28:31;;;;;;;4.85;0.30;;;8.40;99.90;;;;;;5035310;28;20033;-87
2023/11/03 06:30:57;;;;;;;5.82;0.30;;;8.40;99.90;;;;;;5054786;28;20032;-87
2023/11/03 06:33:23;;;;;;;4.78;0.30;;;8.40;99.90;;;;;;5026766;28;20053;-88
2023/11/03 06:35:50;;;;;;;3.17;0.30;;;8.40;99.90;;;;;;5013187;28;20029;-88
2023/11/03 06:38:16;;;;;;;2.90;0.30;;;8.50;99.90;;;;;;5014667;28;20114;-89
2023/11/03 06:40:42;;;;;;;3.65;0.47;;;8.50;99.90;;;;;;5044399;28;20060;-87
2023/11/03 06:43:07;;;;;;;4.70;0.38;;;8.50;99.90;;;;;;5028319;28;20018;-86
2023/11/03 06:45:33;;;;;;;3.35;0.30;;;8.50;99.90;;;;;;5031838;28;20465;-85
2023/11/03 06:47:59;;;;;;;3.05;0.30;;;8.50;99.90;;;;;;5031192;28;20044;-88
2023/11/03 06:50:30;;;;;;;3.83;0.30;;;8.50;99.90;;;;;;5039053;28;20029;-84
2023/11/03 06:52:56;;;;;;;2.25;0.35;;;8.50;99.90;;;;;;5031720;28;20036;-85
2023/11/03 06:55:21;;;;;;;4.22;0.30;;;8.50;99.90;;;;;;5035544;28;20496;-89
2023/11/03 06:57:47;;;;;;;2.97;0.30;;;8.50;99.90;;;;;;5055241;28;20032;-87
2023/11/03 07:00:14;;;;;;;2.53;0.20;;;8.50;99.90;;;;;;5022578;28;20132;-90
2023/11/03 07:02:40;;;;;;;3.20;0.30;;;8.50;99.90;;;;;;5027126;28;20025;-86
2023/11/03 07:05:08;;;;;;;3.10;0.32;;;8.50;99.90;;;;;;5025550;28;20474;-84
2023/11/03 07:07:35;;;;;;;3.17;0.10;;;8.50;99.90;;;;;;5035382;28;20199;-87
2023/11/03 07:10:00;;;;;;;2.38;0.28;;;8.50;99.90;;;;;;5031538;28;20036;-84
2023/11/03 07:12:26;;;;;;;4.25;0.30;;;8.50;99.90;;;;;;5029464;28;20091;-88
2023/11/03 07:14:52;;;;;;;2.45;0.30;;;8.50;99.90;;;;;;5024163;28;20503;-86
2023/11/03 07:17:18;;;;;;;3.10;0.30;;;8.50;99.90;;;;;;5034705;28;20026;-84
2023/11/03 07:19:44;;;;;;;3.55;0.30;;;8.50;99.90;;;;;;5042941;28;20378;-87
2023/11/03 07:22:10;;;;;;;2.70;0.20;;;8.50;99.90;;;;;;5032781;28;20469;-85
2023/11/03 07:24:35;;;;;;;1.77;0.55;;;8.40;99.90;;;;;;5018940;28;20030;-84
2023/11/03 07:27:02;;;;;;;1.65;0.20;;;8.40;99.90;;;;;;5033157;28;20025;-81
2023/11/03 07:29:28;;;;;;;2.08;0.20;;;8.40;99.90;;;;;;5032479;28;20353;-87
2023/11/03 07:31:53;;;;;;;2.72;0.20;;;8.40;99.90;;;;;;5033081;28;20059;-85
2023/11/03 07:34:20;;;;;;;1.17;0.20;;;8.40;99.90;;;;;;5041490;28;20029;-86
2023/11/03 07:36:46;;;;;;;3.53;0.28;;;8.40;99.90;;;;;;5015857;28;20029;-89
2023/11/03 07:39:12;;;;;;;2.75;0.20;;;8.40;99.90;;;;;;5028685;28;20034;-84
2023/11/03 07:41:37;;;;;;;3.15;0.30;;;8.50;99.90;;;;;;5035219;28;20029;-85
2023/11/03 07:44:05;;;;;;;3.17;0.20;;;8.50;99.90;;;;;;5030256;28;20079;-88
2023/11/03 07:46:33;;;;;;;2.22;0.30;;;8.50;99.90;;;;;;5042832;28;20021;-88
2023/11/03 07:48:59;;;;;;;1.63;0.20;;;8.50;99.90;;;;;;5037256;28;20021;-84
2023/11/03 07:51:26;;;;;;;2.80;0.25;;;8.50;99.90;;;;;;5033832;28;20056;-89
2023/11/03 07:53:52;;;;;;;1.27;0.10;;;8.50;99.90;;;;;;5030683;28;20049;-85
2023/11/03 07:56:18;;;;;;;2.20;0.20;;;8.50;99.90;;;;;;5038116;28;20056;-83
2023/11/03 07:58:48;;;;;;;2.80;0.20;;;8.50;99.90;;;;;;5034934;28;20075;-88
2023/11/03 08:01:14;;;;;;;2.72;0.30;;;8.50;99.90;;;;;;5027063;28;20028;-88
2023/11/03 08:03:41;;;;;;;4.18;0.30;;;8.50;99.90;;;;;;5006966;28;20491;-83
2023/11/03 08:06:07;;;;;;;4.05;0.20;;;8.50;99.90;;;;;;5039619;28;20074;-87
2023/11/03 08:08:34;;;;;;;5.38;0.30;;;8.60;99.90;;;;;;5013589;28;20420;-86
2023/11/03 08:11:03;;;;;;;3.08;0.20;;;8.60;99.90;;;;;;5032738;28;20030;-84
2023/11/03 08:13:29;;;;;;;3.42;0.20;;;8.60;99.90;;;;;;5045093;28;20033;-87
2023/11/03 08:15:56;;;;;;;2.72;0.20;;;8.50;99.90;;;;;;5020028;28;20104;-85
2023/11/03 08:18:21;;;;;;;5.03;0.20;;;8.60;99.90;;;;;;5012573;28;20034;-83
2023/11/03 08:20:47;;;;;;;7.18;0.20;;;8.60;99.90;;;;;;5035330;28;20044;-85
2023/11/03 08:23:16;;;;;;;5.30;0.43;;;8.60;99.90;;;;;;5021825;28;20069;-88
2023/11/03 08:25:43;;;;;;;5.30;0.30;;;8.70;99.90;;;;;;5013354;28;20029;-85
2023/11/03 08:28:10;;;;;;;3.55;0.30;;;8.80;99.90;;;;;;5002051;28;20031;-84
2023/11/03 08:30:40;;;;;;;3.38;0.20;;;8.80;99.90;;;;;;5036561;28;20029;-84
2023/11/03 08:33:08;;;;;;;4.85;0.30;;;8.80;99.90;;;;;;5029117;28;20061;-86
2023/11/03 08:35:35;;;;;;;3.45;0.30;;;9.00;99.90;;;;;;5023105;28;20083;-83
2023/11/03 08:38:03;;;;;;;3.72;0.30;;;9.00;99.90;;;;;;5008817;28;20492;-83
2023/11/03 08:40:29;;;;;;;5.70;0.60;;;9.10;99.90;;;;;;5040696;28;20404;-91
2023/11/03 08:42:55;;;;;;;3.40;0.30;;;9.00;99.90;;;;;;5017506;28;20375;-84
2023/11/03 08:45:21;;;;;;;5.90;0.30;;;9.10;99.90;;;;;;5004656;28;20035;-86
2023/11/03 08:47:46;;;;;;;6.22;0.50;;;9.10;99.90;;;;;;4997995;28;20401;-87
2023/11/03 08:50:15;;;;;;;3.50;0.20;;;9.20;99.90;;;;;;5016099;28;20038;-86
2023/11/03 08:52:41;;;;;;;3.22;0.30;;;9.30;99.90;;;;;;4996861;28;20429;-85
2023/11/03 08:55:08;;;;;;;3.47;0.30;;;9.40;99.90;;;;;;5011889;28;20044;-88
2023/11/03 08:57:39;;;;;;;7.00;0.32;;;9.50;99.90;;;;;;5010945;28;20059;-84
2023/11/03 09:00:11;;;;;;;4.28;0.30;;;9.60;99.90;;;;;;5002719;28;20400;-83
2023/11/03 09:02:37;;;;;;;4.55;0.30;;;9.60;99.90;;;;;;5001433;28;20033;-85
2023/11/03 09:05:05;;;;;;;6.00;0.30;;;9.70;99.90;;;;;;4994121;28;20068;-86
2023/11/03 09:07:31;;;;;;;4.15;0.52;;;9.80;99.90;;;;;;5010566;28;20044;-84
2023/11/03 09:09:58;;;;;;;6.20;0.60;;;9.90;99.90;;;;;;5010905;28;20033;-83
2023/11/03 09:12:23;;;;;;;4.38;0.30;;;10.00;99.90;;;;;;5001032;28;20511;-88
2023/11/03 09:14:49;;;;;;;6.43;0.40;;;10.00;99.90;;;;;;4993912;28;20029;-84
2023/11/03 09:17:15;;;;;;;4.53;0.32;;;10.20;99.90;;;;;;5002874;28;20432;-85
2023/11/03 09:19:41;;;;;;;7.13;0.40;;;10.30;99.90;;;;;;4994918;28;20058;-85
2023/11/03 09:22:07;;;;;;;6.72;0.55;;;10.10;99.90;;;;;;4994156;28;20804;-87
2023/11/03 09:24:33;;;;;;;4.18;0.20;;;10.00;99.90;;;;;;5002394;28;20039;-83
2023/11/03 09:26:58;;;;;;;9.68;0.50;;;10.00;99.90;;;;;;4993951;28;20512;-84
2023/11/03 09:29:24;;;;;;;3.88;0.30;;;10.00;99.90;;;;;;4994106;28;20037;-83
2023/11/03 09:31:51;;;;;;;5.35;0.50;;;10.10;99.90;;;;;;5026323;28;20029;-87
2023/11/03 09:34:16;;;;;;;8.82;0.70;;;10.10;99.90;;;;;;5002924;28;20037;-86
2023/11/03 09:36:42;;;;;;;7.53;0.95;;;10.10;99.90;;;;;;4995342;28;20026;-88
2023/11/03 09:39:09;;;;;;;5.00;0.40;;;10.10;99.90;;;;;;5011315;28;20100;-86
2023/11/03 09:41:41;;;;;;;5.40;0.30;;;10.10;99.90;;;;;;5003764;28;20250;-83
2023/11/03 09:44:07;;;;;;;4.07;0.20;;;10.10;99.90;;;;;;5001528;28;20465;-85
2023/11/03 09:46:33;;;;;;;4.53;0.40;;;10.10;99.90;;;;;;4985114;28;20134;-87
2023/11/03 09:49:00;;;;;;;4.03;0.35;;;10.20;99.90;;;;;;5011536;28;20043;-89
2023/11/03 09:51:29;;;;;;;5.65;0.50;;;10.30;99.90;;;;;;4993260;28;20026;-86
2023/11/03 09:53:57;;;;;;;3.42;0.40;;;10.20;99.90;;;;;;4986472;28;20140;-88
2023/11/03 09:56:23;;;;;;;4.93;0.30;;;10.30;99.90;;;;;;5007606;28;20038;-82
2023/11/03 09:58:49;;;;;;;3.53;0.30;;;10.30;99.90;;;;;;5009679;28;20095;-86
2023/11/03 10:01:16;;;;;;;3.03;0.40;;;10.40;99.90;;;;;;4995164;28;20431;-82
2023/11/03 10:03:43;;;;;;;2.60;0.30;;;10.50;99.90;;;;;;5011148;28;20771;-82
2023/11/03 10:06:09;;;;;;;6.25;0.40;;;10.60;99.90;;;;;;4993843;28;20041;-83
2023/11/03 10:08:39;;;;;;;2.63;0.20;;;10.60;99.90;;;;;;5003134;28;20538;-84
2023/11/03 10:11:05;;;;;;;5.35;0.30;;;10.60;99.90;;;;;;5007932;28;20103;-86
2023/11/03 10:13:36;;;;;;;3.15;0.45;;;10.70;99.90;;;;;;4994923;28;20532;-83
2023/11/03 10:16:02;;;;;;;3.17;0.30;;;10.70;99.90;;;;;;4997362;28;20041;-86
2023/11/03 10:18:28;;;;;;;2.33;0.20;;;10.80;99.90;;;;;;5002903;28;20025;-84
2023/11/03 10:20:57;;;;;;;5.28;0.30;;;10.80;99.90;;;;;;5009249;28;20034;-83
2023/11/03 10:23:23;;;;;;;3.97;0.60;;;10.80;99.90;;;;;;5006312;28;20049;-85
2023/11/03 10:25:51;;;;;;;4.75;0.35;;;10.90;99.90;;;;;;5008182;28;20151;-86
2023/11/03 10:28:19;;;;;;;3.92;0.28;;;11.10;99.90;;;;;;5009380;28;20633;-86
2023/11/03 10:30:54;;;;;;;4.72;0.30;;;11.20;99.90;;;;;;5027172;28;20061;-84
2023/11/03 10:33:22;;;;;;;2.97;0.20;;;11.20;99.90;;;;;;5018810;28;20026;-86
2023/11/03 10:35:49;;;;;;;2.08;0.20;;;11.20;99.90;;;;;;5033805;28;20036;-85
2023/11/03 10:38:18;;;;;;;2.72;0.45;;;11.20;99.90;;;;;;5018102;28;20025;-82
2023/11/03 10:40:45;;;;;;;3.25;0.30;;;11.10;99.90;;;;;;5026419;28;20045;-82
2023/11/03 10:43:14;;;;;;;3.50;0.30;;;11.10;99.90;;;;;;5022129;28;20108;-82
2023/11/03 10:45:44;;;;;;;3.13;0.30;;;11.00;99.90;;;;;;5020693;28;20121;-82
2023/11/03 10:48:21;;;;;;;4.75;0.30;;;11.10;99.90;;;;;;5005830;28;20120;-82
2023/11/03 10:51:16;;;;;;;3.17;0.40;;;11.00;99.90;;;;;;5032988;28;20057;-84
2023/11/03 10:53:54;;;;;;;5.32;0.30;;;10.90;99.90;;;;;;5017543;28;20036;-86
2023/11/03 10:56:21;;;;;;;2.95;0.40;;;11.00;99.90;;;;;;5014254;28;20093;-83
2023/11/03 10:58:48;;;;;;;5.18;0.82;;;11.00;99.90;;;;;;5039267;28;20153;-81
2023/11/03 11:01:29;;;;;;;7.55;0.68;;;11.20;99.90;;;;;;5027200;28;20068;-82
2023/11/03 11:04:12;;;;;;;7.90;0.98;;;11.20;99.90;;;;;;5020860;28;20470;-83
2023/11/03 11:06:53;;;;;;;4.45;0.40;;;11.30;99.90;;;;;;5026031;28;20699;-83
2023/11/03 11:09:39;;;;;;;4.32;0.30;;;11.30;99.90;;;;;;5019318;28;20484;-85
2023/11/03 11:12:07;;;;;;;3.90;0.30;;;11.30;99.90;;;;;;5049641;28;20026;-82
2023/11/03 11:14:41;;;;;;;4.15;0.50;;;11.30;99.90;;;;;;5019238;28;20037;-83
2023/11/03 11:17:23;;;;;;;6.53;0.50;;;11.30;99.90;;;;;;5024576;28;20425;-81
2023/11/03 11:19:53;;;;;;;3.28;0.30;;;11.30;99.90;;;;;;5038311;28;20528;-84
2023/11/03 11:22:19;;;;;;;8.20;0.60;;;11.20;99.90;;;;;;4999622;28;20390;-83
2023/11/03 11:24:47;;;;;;;4.00;0.30;;;11.30;99.90;;;;;;5022283;28;20398;-81
2023/11/03 11:27:19;;;;;;;3.53;0.63;;;11.20;99.90;;;;;;5026239;28;20485;-82
2023/11/03 11:29:49;;;;;;;9.05;0.40;;;11.20;99.90;;;;;;5024387;28;20029;-83
2023/11/03 11:32:17;;;;;;;4.50;1.42;;;11.30;99.90;;;;;;5001318;28;20029;-83
2023/11/03 11:34:44;;;;;;;4.55;0.50;;;11.60;99.90;;;;;;5024617;28;20410;-81
2023/11/03 11:37:29;;;;;;;8.73;0.30;;;11.80;99.90;;;;;;5001843;28;20026;-82
2023/11/03 11:40:01;;;;;;;3.92;0.30;;;11.90;99.90;;;;;;5033884;28;20041;-83
2023/11/03 11:42:32;;;;;;;2.50;0.20;;;11.80;99.90;;;;;;5033739;28;20033;-81
2023/11/03 11:44:59;;;;;;;3.88;0.40;;;11.90;99.90;;;;;;5016787;28;20125;-82
2023/11/03 11:47:27;;;;;;;3.40;0.40;;;12.10;99.90;;;;;;5024445;28;20044;-82
2023/11/03 11:49:56;;;;;;;3.95;0.30;;;12.30;99.90;;;;;;5002274;28;20045;-83
2023/11/03 11:52:26;;;;;;;5.40;0.30;;;12.40;99.90;;;;;;5012443;28;20033;-82
2023/11/03 11:54:57;;;;;;;4.82;0.40;;;12.60;99.90;;;;;;5020778;28;20038;-82
2023/11/03 11:57:26;;;;;;;6.95;0.40;;;12.30;99.90;;;;;;5005635;28;20032;-82
2023/11/03 11:59:55;;;;;;;3.42;0.50;;;12.10;99.90;;;;;;5026242;28;20128;-84
2023/11/03 12:02:22;;;;;;;7.35;0.20;;;12.10;99.90;;;;;;5018370;28;20029;-82
2023/11/03 12:04:53;;;;;;;7.55;0.30;;;12.10;99.90;;;;;;5038013;28;20492;-82
2023/11/03 12:07:24;;;;;;;3.92;0.50;;;12.10;99.90;;;;;;5037888;28;20029;-82
2023/11/03 12:09:53;;;;;;;4.50;0.30;;;11.90;99.90;;;;;;5023730;28;20365;-84
2023/11/03 12:12:22;;;;;;;5.15;0.30;;;11.90;99.90;;;;;;5023117;28;20033;-82
2023/11/03 12:14:47;;;;;;;8.93;0.40;;;11.80;99.90;;;;;;5004096;28;20084;-82
2023/11/03 12:17:20;;;;;;;3.30;0.50;;;12.10;99.90;;;;;;5034517;28;20022;-83
2023/11/03 12:19:51;;;;;;;3.35;0.30;;;12.50;99.90;;;;;;5036528;28;20569;-81
2023/11/03 12:22:19;;;;;;;;;;;12.60;99.90;;;;;;5033865;28;20018;-82
2023/11/03 12:24:45;;;;;;;2.95;0.20;;;12.70;99.90;;;;;;5036333;28;19917;-85
2023/11/03 12:27:11;;;;;;;4.55;0.40;;;12.60;99.90;;;;;;5037926;28;20076;-83
2023/11/03 12:29:39;;;;;;;4.68;0.30;;;12.60;99.90;;;;;;5025844;28;20030;-83
2023/11/03 12:32:05;;;;;;;5.07;0.30;;;12.50;99.90;;;;;;5025933;28;20057;-83
2023/11/03 12:34:31;;;;;;;3.47;0.30;;;12.40;99.90;;;;;;5025783;28;20473;-82
2023/11/03 12:36:57;;;;;;;3.20;0.25;;;12.30;99.90;;;;;;5018547;28;20390;-82
2023/11/03 12:39:26;;;;;;;4.15;0.30;;;12.50;99.90;;;;;;5007891;28;20052;-84
2023/11/03 12:42:09;;;;;;;6.00;0.73;;;12.40;99.90;;;;;;5007688;28;20543;-86
2023/11/03 12:45:04;;;;;;;4.95;0.40;;;12.50;99.90;;;;;;4997392;28;20029;-83
2023/11/03 12:47:50;;;;;;;5.25;0.40;;;12.40;99.90;;;;;;5020972;28;20035;-82
2023/11/03 12:50:18;;;;;;;4.50;0.28;;;12.30;99.90;;;;;;5018949;28;20025;-84
2023/11/03 12:52:49;;;;;;;5.57;0.20;;;12.10;99.90;;;;;;5030756;28;20589;-81
2023/11/03 12:55:19;;;;;;;2.53;0.30;;;12.40;99.90;;;;;;5034196;28;20053;-82
2023/11/03 12:57:45;;;;;;;3.72;0.20;;;12.50;99.90;;;;;;5017863;28;20045;-82